Tuesday, May 24, 2016, 3:29 PM EDT

KTHV, York Airport

Location: Spring Grove, PA, United States Lat: 39.917
Local Time: 3:29 PM EDT (19:29 GMT) Lon: -76.883
Time Zone: US/Eastern Elev: 478 ft

Show me the last for .
Show Decoded

2016-05-24 14:53 METAR KTHV 241853Z AUTO 31011KT 10SM FEW085 27/09 A2996 RMK AO2 SLP145 T02670089
                 =
2016-05-24 13:53 METAR KTHV 241753Z AUTO 34008KT 10SM FEW080 26/10 A2997 RMK AO2 SLP148 T02610100
                 10267 20172 58009 =
2016-05-24 12:53 METAR KTHV 241653Z AUTO 32010KT 10SM CLR 26/09 A2999 RMK AO2 SLP154 T02610094 =
2016-05-24 11:53 METAR KTHV 241553Z AUTO 34007KT 310V010 10SM CLR 25/09 A3000 RMK AO2 SLP157
                 T02500094 =
2016-05-24 10:53 METAR KTHV 241453Z AUTO 32008KT 10SM CLR 24/10 A3000 RMK AO2 SLP158 T02390100
                 51008 =
2016-05-24 09:53 METAR KTHV 241353Z AUTO 33009KT 10SM CLR 22/10 A3000 RMK AO2 SLP158 T02170100 =
2016-05-24 08:53 METAR KTHV 241253Z AUTO 28004KT 10SM CLR 19/12 A2999 RMK AO2 SLP156 T01940122 =
2016-05-24 07:53 METAR KTHV 241153Z AUTO 28005KT 10SM CLR 17/11 A2997 RMK AO2 SLP149 70001
                 T01720106 10172 20117 51020 =
2016-05-24 06:53 METAR KTHV 241053Z AUTO 28005KT 10SM CLR 16/10 A2995 RMK AO2 SLP143 T01560100 =
2016-05-24 05:53 METAR KTHV 240953Z AUTO 00000KT 10SM FEW120 12/10 A2993 RMK AO2 SLP138 T01170100
                 =
2016-05-24 04:53 METAR KTHV 240853Z AUTO 29005KT 10SM CLR 14/10 A2991 RMK AO2 SLP130 T01390100
                 55004 =
2016-05-24 03:53 METAR KTHV 240753Z AUTO 27006KT 10SM CLR 14/11 A2991 RMK AO2 SLP129 T01390106 =
2016-05-24 02:53 METAR KTHV 240653Z AUTO 29005KT 10SM CLR 14/12 A2992 RMK AO2 SLP131 T01390117 =
2016-05-24 01:53 METAR KTHV 240553Z AUTO 26003KT 10SM BKN090 OVC110 14/12 A2992 RMK AO2 SLP133
                 60000 T01390122 10172 20139 56008 =
2016-05-24 00:53 METAR KTHV 240453Z AUTO 27004KT 10SM FEW065 SCT090 SCT100 14/12 A2993 RMK AO2
                 RAE0359 SLP135 P0000 T01440122 402440111 =
2016-05-23 23:53 METAR KTHV 240353Z AUTO 24004KT 10SM -RA FEW080 14/12 A2994 RMK AO2 RAB46 SLP138
                 P0000 T01440117 =
2016-05-23 22:53 METAR KTHV 240253Z AUTO 09003KT 10SM BKN080 15/12 A2995 RMK AO2 SLP141 T01500117
                 52011 =
2016-05-23 21:53 METAR KTHV 240153Z AUTO 00000KT 10SM CLR 15/11 A2993 RMK AO2 SLP137 T01500111 =
2016-05-23 20:53 METAR KTHV 240053Z AUTO 29004KT 10SM FEW100 15/12 A2993 RMK AO2 SLP137 T01500122
                 =
2016-05-23 19:53 METAR KTHV 232353Z AUTO 25003KT 10SM CLR 17/13 A2992 RMK AO2 SLP131 60001
                 T01670128 10244 20167 53001 =
2016-05-23 18:53 METAR KTHV 232253Z AUTO 00000KT 10SM OVC100 17/13 A2990 RMK AO2 RAB21E49 SLP127
                 P0000 T01720133 =
2016-05-23 17:53 METAR KTHV 232153Z AUTO 36009KT 10SM SCT120 19/12 A2992 RMK AO2 SLP134 T01890117
                 =
2016-05-23 16:53 METAR KTHV 232053Z AUTO 30011KT 10SM BKN110 18/12 A2991 RMK AO2 LTG DSNT E AND
                 SE AND W RAE01 SLP131 P0000 60001 T01780117 55004 =

Support USWX by starting your Amazon purchase here.